sensor_id;sensor_type;location;lat;lon;timestamp;P1;durP1;ratioP1;P2;durP2;ratioP2
22922;SDS011;11627;51.322;22.816;2023-04-03T00:01:54;6.13;;;3.15;;
22922;SDS011;11627;51.322;22.816;2023-04-03T00:04:20;5.93;;;3.60;;
22922;SDS011;11627;51.322;22.816;2023-04-03T00:06:45;5.10;;;3.38;;
22922;SDS011;11627;51.322;22.816;2023-04-03T00:09:11;5.53;;;3.10;;
22922;SDS011;11627;51.322;22.816;2023-04-03T00:11:37;4.45;;;3.20;;
22922;SDS011;11627;51.322;22.816;2023-04-03T00:14:03;4.32;;;3.20;;
22922;SDS011;11627;51.322;22.816;2023-04-03T00:16:28;5.40;;;3.42;;
22922;SDS011;11627;51.322;22.816;2023-04-03T00:18:54;3.85;;;2.60;;
22922;SDS011;11627;51.322;22.816;2023-04-03T00:21:20;5.28;;;3.25;;
22922;SDS011;11627;51.322;22.816;2023-04-03T00:23:46;4.78;;;3.20;;
22922;SDS011;11627;51.322;22.816;2023-04-03T00:26:11;5.03;;;2.90;;
22922;SDS011;11627;51.322;22.816;2023-04-03T00:28:37;4.70;;;3.20;;
22922;SDS011;11627;51.322;22.816;2023-04-03T00:31:03;6.38;;;3.25;;
22922;SDS011;11627;51.322;22.816;2023-04-03T00:33:29;5.70;;;2.97;;
22922;SDS011;11627;51.322;22.816;2023-04-03T00:35:55;4.63;;;3.15;;
22922;SDS011;11627;51.322;22.816;2023-04-03T00:38:20;5.28;;;3.03;;
22922;SDS011;11627;51.322;22.816;2023-04-03T00:40:47;6.78;;;3.13;;
22922;SDS011;11627;51.322;22.816;2023-04-03T00:43:15;5.00;;;2.75;;
22922;SDS011;11627;51.322;22.816;2023-04-03T00:45:47;5.78;;;2.55;;
22922;SDS011;11627;51.322;22.816;2023-04-03T00:48:34;4.72;;;2.92;;
22922;SDS011;11627;51.322;22.816;2023-04-03T00:51:04;5.40;;;3.03;;
22922;SDS011;11627;51.322;22.816;2023-04-03T00:53:35;4.85;;;3.00;;
22922;SDS011;11627;51.322;22.816;2023-04-03T00:56:06;3.90;;;2.75;;
22922;SDS011;11627;51.322;22.816;2023-04-03T00:58:57;3.95;;;2.85;;
22922;SDS011;11627;51.322;22.816;2023-04-03T01:01:27;4.75;;;3.25;;
22922;SDS011;11627;51.322;22.816;2023-04-03T01:03:54;4.20;;;2.70;;
22922;SDS011;11627;51.322;22.816;2023-04-03T01:06:23;5.03;;;3.03;;
22922;SDS011;11627;51.322;22.816;2023-04-03T01:08:51;5.60;;;2.80;;
22922;SDS011;11627;51.322;22.816;2023-04-03T01:11:17;4.55;;;3.00;;
22922;SDS011;11627;51.322;22.816;2023-04-03T01:13:45;5.18;;;3.00;;
22922;SDS011;11627;51.322;22.816;2023-04-03T01:16:11;3.92;;;2.47;;
22922;SDS011;11627;51.322;22.816;2023-04-03T01:18:37;4.90;;;2.90;;
22922;SDS011;11627;51.322;22.816;2023-04-03T01:23:42;5.82;;;3.08;;
22922;SDS011;11627;51.322;22.816;2023-04-03T01:26:14;5.40;;;2.88;;
22922;SDS011;11627;51.322;22.816;2023-04-03T01:28:41;5.65;;;3.45;;
22922;SDS011;11627;51.322;22.816;2023-04-03T01:31:27;6.80;;;3.88;;
22922;SDS011;11627;51.322;22.816;2023-04-03T01:34:07;4.78;;;3.50;;
22922;SDS011;11627;51.322;22.816;2023-04-03T01:36:32;5.20;;;3.17;;
22922;SDS011;11627;51.322;22.816;2023-04-03T01:38:59;6.25;;;3.22;;
22922;SDS011;11627;51.322;22.816;2023-04-03T01:41:25;5.07;;;2.95;;
22922;SDS011;11627;51.322;22.816;2023-04-03T01:43:51;5.93;;;3.17;;
22922;SDS011;11627;51.322;22.816;2023-04-03T01:46:17;4.95;;;3.17;;
22922;SDS011;11627;51.322;22.816;2023-04-03T01:48:44;4.63;;;3.00;;
22922;SDS011;11627;51.322;22.816;2023-04-03T01:51:10;4.90;;;2.70;;
22922;SDS011;11627;51.322;22.816;2023-04-03T01:53:36;5.20;;;2.83;;
22922;SDS011;11627;51.322;22.816;2023-04-03T01:56:02;4.05;;;2.15;;
22922;SDS011;11627;51.322;22.816;2023-04-03T01:58:28;3.65;;;2.50;;
22922;SDS011;11627;51.322;22.816;2023-04-03T02:00:54;4.72;;;2.60;;
22922;SDS011;11627;51.322;22.816;2023-04-03T02:03:20;5.88;;;2.58;;
22922;SDS011;11627;51.322;22.816;2023-04-03T02:05:47;5.63;;;2.40;;
22922;SDS011;11627;51.322;22.816;2023-04-03T02:08:12;4.90;;;2.60;;
22922;SDS011;11627;51.322;22.816;2023-04-03T02:10:38;3.95;;;2.63;;
22922;SDS011;11627;51.322;22.816;2023-04-03T02:13:04;6.05;;;2.72;;
22922;SDS011;11627;51.322;22.816;2023-04-03T02:15:30;4.72;;;2.97;;
22922;SDS011;11627;51.322;22.816;2023-04-03T02:17:56;5.70;;;3.38;;
22922;SDS011;11627;51.322;22.816;2023-04-03T02:20:22;4.68;;;2.80;;
22922;SDS011;11627;51.322;22.816;2023-04-03T02:22:47;3.63;;;2.33;;
22922;SDS011;11627;51.322;22.816;2023-04-03T02:25:13;4.53;;;2.25;;
22922;SDS011;11627;51.322;22.816;2023-04-03T02:27:39;3.83;;;2.50;;
22922;SDS011;11627;51.322;22.816;2023-04-03T02:30:05;2.92;;;1.83;;
22922;SDS011;11627;51.322;22.816;2023-04-03T02:32:31;4.75;;;2.47;;
22922;SDS011;11627;51.322;22.816;2023-04-03T02:34:57;5.80;;;2.65;;
22922;SDS011;11627;51.322;22.816;2023-04-03T02:37:23;5.65;;;2.50;;
22922;SDS011;11627;51.322;22.816;2023-04-03T02:39:49;4.68;;;2.55;;
22922;SDS011;11627;51.322;22.816;2023-04-03T02:42:15;3.25;;;1.88;;
22922;SDS011;11627;51.322;22.816;2023-04-03T02:44:41;6.78;;;2.33;;
22922;SDS011;11627;51.322;22.816;2023-04-03T02:47:07;3.42;;;1.60;;
22922;SDS011;11627;51.322;22.816;2023-04-03T02:49:32;4.25;;;1.63;;
22922;SDS011;11627;51.322;22.816;2023-04-03T02:51:58;2.95;;;1.90;;
22922;SDS011;11627;51.322;22.816;2023-04-03T02:54:24;2.97;;;1.63;;
22922;SDS011;11627;51.322;22.816;2023-04-03T02:56:53;2.95;;;1.60;;
22922;SDS011;11627;51.322;22.816;2023-04-03T02:59:19;2.70;;;1.48;;
22922;SDS011;11627;51.322;22.816;2023-04-03T03:01:45;3.88;;;1.83;;
22922;SDS011;11627;51.322;22.816;2023-04-03T03:04:11;3.05;;;1.58;;
22922;SDS011;11627;51.322;22.816;2023-04-03T03:06:37;2.45;;;1.30;;
22922;SDS011;11627;51.322;22.816;2023-04-03T03:09:03;3.60;;;1.60;;
22922;SDS011;11627;51.322;22.816;2023-04-03T03:11:29;2.25;;;1.52;;
22922;SDS011;11627;51.322;22.816;2023-04-03T03:13:55;2.65;;;1.50;;
22922;SDS011;11627;51.322;22.816;2023-04-03T03:16:21;2.10;;;1.20;;
22922;SDS011;11627;51.322;22.816;2023-04-03T03:18:47;1.88;;;1.17;;
22922;SDS011;11627;51.322;22.816;2023-04-03T03:21:12;3.83;;;1.50;;
22922;SDS011;11627;51.322;22.816;2023-04-03T03:23:39;4.18;;;1.30;;
22922;SDS011;11627;51.322;22.816;2023-04-03T03:26:06;2.35;;;1.23;;
22922;SDS011;11627;51.322;22.816;2023-04-03T03:28:33;2.95;;;1.30;;
22922;SDS011;11627;51.322;22.816;2023-04-03T03:31:01;2.63;;;1.60;;
22922;SDS011;11627;51.322;22.816;2023-04-03T03:33:27;2.53;;;1.02;;
22922;SDS011;11627;51.322;22.816;2023-04-03T03:35:53;2.42;;;1.10;;
22922;SDS011;11627;51.322;22.816;2023-04-03T03:38:19;4.55;;;1.35;;
22922;SDS011;11627;51.322;22.816;2023-04-03T03:40:48;3.92;;;1.40;;
22922;SDS011;11627;51.322;22.816;2023-04-03T03:43:15;4.43;;;1.38;;
22922;SDS011;11627;51.322;22.816;2023-04-03T03:45:41;2.08;;;1.10;;
22922;SDS011;11627;51.322;22.816;2023-04-03T03:48:07;3.53;;;1.20;;
22922;SDS011;11627;51.322;22.816;2023-04-03T03:50:33;3.80;;;1.30;;
22922;SDS011;11627;51.322;22.816;2023-04-03T03:52:59;2.88;;;1.17;;
22922;SDS011;11627;51.322;22.816;2023-04-03T03:55:25;2.35;;;1.10;;
22922;SDS011;11627;51.322;22.816;2023-04-03T03:57:51;1.90;;;1.25;;
22922;SDS011;11627;51.322;22.816;2023-04-03T04:00:16;3.20;;;1.48;;
22922;SDS011;11627;51.322;22.816;2023-04-03T04:02:42;2.70;;;1.40;;
22922;SDS011;11627;51.322;22.816;2023-04-03T04:05:08;5.43;;;1.63;;
22922;SDS011;11627;51.322;22.816;2023-04-03T04:07:34;1.58;;;1.20;;
22922;SDS011;11627;51.322;22.816;2023-04-03T04:10:00;3.58;;;1.80;;
22922;SDS011;11627;51.322;22.816;2023-04-03T04:12:26;3.22;;;1.52;;
22922;SDS011;11627;51.322;22.816;2023-04-03T04:14:52;3.05;;;1.60;;
22922;SDS011;11627;51.322;22.816;2023-04-03T04:17:18;4.07;;;2.10;;
22922;SDS011;11627;51.322;22.816;2023-04-03T04:19:44;5.45;;;1.75;;
22922;SDS011;11627;51.322;22.816;2023-04-03T04:22:10;2.95;;;1.45;;
22922;SDS011;11627;51.322;22.816;2023-04-03T04:24:36;3.63;;;1.50;;
22922;SDS011;11627;51.322;22.816;2023-04-03T04:27:02;6.00;;;1.70;;
22922;SDS011;11627;51.322;22.816;2023-04-03T04:29:28;3.80;;;1.40;;
22922;SDS011;11627;51.322;22.816;2023-04-03T04:31:53;1.92;;;1.15;;
22922;SDS011;11627;51.322;22.816;2023-04-03T04:34:19;2.05;;;1.20;;
22922;SDS011;11627;51.322;22.816;2023-04-03T04:36:45;2.70;;;1.27;;
22922;SDS011;11627;51.322;22.816;2023-04-03T04:39:11;2.08;;;1.10;;
22922;SDS011;11627;51.322;22.816;2023-04-03T04:41:36;1.83;;;0.80;;
22922;SDS011;11627;51.322;22.816;2023-04-03T04:44:02;6.18;;;1.35;;
22922;SDS011;11627;51.322;22.816;2023-04-03T04:46:28;2.30;;;1.02;;
22922;SDS011;11627;51.322;22.816;2023-04-03T04:48:54;2.95;;;1.25;;
22922;SDS011;11627;51.322;22.816;2023-04-03T04:51:19;2.42;;;1.00;;
22922;SDS011;11627;51.322;22.816;2023-04-03T04:53:45;2.05;;;1.15;;
22922;SDS011;11627;51.322;22.816;2023-04-03T04:56:11;3.03;;;1.17;;
22922;SDS011;11627;51.322;22.816;2023-04-03T04:58:37;2.53;;;0.90;;
22922;SDS011;11627;51.322;22.816;2023-04-03T05:01:04;3.75;;;1.23;;
22922;SDS011;11627;51.322;22.816;2023-04-03T05:03:31;2.72;;;1.00;;
22922;SDS011;11627;51.322;22.816;2023-04-03T05:05:57;3.22;;;0.80;;
22922;SDS011;11627;51.322;22.816;2023-04-03T05:08:23;3.60;;;0.98;;
22922;SDS011;11627;51.322;22.816;2023-04-03T05:10:49;3.22;;;1.05;;
22922;SDS011;11627;51.322;22.816;2023-04-03T05:13:15;3.60;;;1.10;;
22922;SDS011;11627;51.322;22.816;2023-04-03T05:15:41;2.47;;;1.30;;
22922;SDS011;11627;51.322;22.816;2023-04-03T05:18:07;4.72;;;1.25;;
22922;SDS011;11627;51.322;22.816;2023-04-03T05:20:33;4.53;;;1.08;;
22922;SDS011;11627;51.322;22.816;2023-04-03T05:22:59;1.45;;;0.88;;
22922;SDS011;11627;51.322;22.816;2023-04-03T05:25:25;2.00;;;1.00;;
22922;SDS011;11627;51.322;22.816;2023-04-03T05:27:51;2.42;;;1.20;;
22922;SDS011;11627;51.322;22.816;2023-04-03T05:30:17;3.03;;;1.10;;
22922;SDS011;11627;51.322;22.816;2023-04-03T05:32:43;3.63;;;1.58;;
22922;SDS011;11627;51.322;22.816;2023-04-03T05:35:10;4.43;;;1.60;;
22922;SDS011;11627;51.322;22.816;2023-04-03T05:37:35;2.42;;;1.10;;
22922;SDS011;11627;51.322;22.816;2023-04-03T05:40:02;3.33;;;1.38;;
22922;SDS011;11627;51.322;22.816;2023-04-03T05:42:29;2.13;;;0.88;;
22922;SDS011;11627;51.322;22.816;2023-04-03T05:44:55;4.55;;;1.05;;
22922;SDS011;11627;51.322;22.816;2023-04-03T05:47:20;4.65;;;1.23;;
22922;SDS011;11627;51.322;22.816;2023-04-03T05:49:46;2.08;;;1.20;;
22922;SDS011;11627;51.322;22.816;2023-04-03T05:52:23;4.40;;;1.55;;
22922;SDS011;11627;51.322;22.816;2023-04-03T05:54:54;2.20;;;1.15;;
22922;SDS011;11627;51.322;22.816;2023-04-03T05:57:20;3.10;;;1.08;;
22922;SDS011;11627;51.322;22.816;2023-04-03T05:59:47;4.30;;;1.38;;
22922;SDS011;11627;51.322;22.816;2023-04-03T06:02:15;3.30;;;1.30;;
22922;SDS011;11627;51.322;22.816;2023-04-03T06:04:42;2.65;;;1.13;;
22922;SDS011;11627;51.322;22.816;2023-04-03T06:07:10;6.13;;;1.30;;
22922;SDS011;11627;51.322;22.816;2023-04-03T06:09:38;3.65;;;1.40;;
22922;SDS011;11627;51.322;22.816;2023-04-03T06:12:04;3.58;;;1.30;;
22922;SDS011;11627;51.322;22.816;2023-04-03T06:14:30;2.58;;;1.05;;
22922;SDS011;11627;51.322;22.816;2023-04-03T06:16:55;2.28;;;0.90;;
22922;SDS011;11627;51.322;22.816;2023-04-03T06:19:21;4.32;;;1.30;;
22922;SDS011;11627;51.322;22.816;2023-04-03T06:21:47;2.13;;;1.10;;
22922;SDS011;11627;51.322;22.816;2023-04-03T06:24:14;2.20;;;1.02;;
22922;SDS011;11627;51.322;22.816;2023-04-03T06:26:41;1.73;;;1.10;;
22922;SDS011;11627;51.322;22.816;2023-04-03T06:29:07;2.42;;;1.10;;
22922;SDS011;11627;51.322;22.816;2023-04-03T06:31:33;2.15;;;1.05;;
22922;SDS011;11627;51.322;22.816;2023-04-03T06:33:59;3.63;;;1.30;;
22922;SDS011;11627;51.322;22.816;2023-04-03T06:36:25;4.85;;;1.00;;
22922;SDS011;11627;51.322;22.816;2023-04-03T06:38:51;1.95;;;1.10;;
22922;SDS011;11627;51.322;22.816;2023-04-03T06:41:16;3.72;;;0.90;;
22922;SDS011;11627;51.322;22.816;2023-04-03T06:43:43;2.30;;;1.23;;
22922;SDS011;11627;51.322;22.816;2023-04-03T06:46:16;1.60;;;1.00;;
22922;SDS011;11627;51.322;22.816;2023-04-03T06:48:47;4.85;;;1.27;;
22922;SDS011;11627;51.322;22.816;2023-04-03T06:51:23;5.25;;;1.10;;
22922;SDS011;11627;51.322;22.816;2023-04-03T06:53:51;1.33;;;1.00;;
22922;SDS011;11627;51.322;22.816;2023-04-03T06:56:18;1.75;;;0.88;;
22922;SDS011;11627;51.322;22.816;2023-04-03T06:58:45;2.00;;;1.10;;
22922;SDS011;11627;51.322;22.816;2023-04-03T07:01:12;3.75;;;1.17;;
22922;SDS011;11627;51.322;22.816;2023-04-03T07:03:44;2.30;;;1.10;;
22922;SDS011;11627;51.322;22.816;2023-04-03T07:06:11;2.53;;;1.00;;
22922;SDS011;11627;51.322;22.816;2023-04-03T07:08:38;3.20;;;1.15;;
22922;SDS011;11627;51.322;22.816;2023-04-03T07:11:04;1.73;;;1.00;;
22922;SDS011;11627;51.322;22.816;2023-04-03T07:13:30;3.15;;;1.15;;
22922;SDS011;11627;51.322;22.816;2023-04-03T07:15:57;3.58;;;1.20;;
22922;SDS011;11627;51.322;22.816;2023-04-03T07:18:23;5.35;;;1.92;;
22922;SDS011;11627;51.322;22.816;2023-04-03T07:20:49;4.35;;;1.25;;
22922;SDS011;11627;51.322;22.816;2023-04-03T07:23:15;4.68;;;1.48;;
22922;SDS011;11627;51.322;22.816;2023-04-03T07:25:45;2.63;;;1.50;;
22922;SDS011;11627;51.322;22.816;2023-04-03T07:28:12;2.70;;;1.40;;
22922;SDS011;11627;51.322;22.816;2023-04-03T07:30:42;2.38;;;1.20;;
22922;SDS011;11627;51.322;22.816;2023-04-03T07:33:16;4.13;;;1.83;;
22922;SDS011;11627;51.322;22.816;2023-04-03T07:35:43;5.10;;;1.67;;
22922;SDS011;11627;51.322;22.816;2023-04-03T07:38:10;5.82;;;1.77;;
22922;SDS011;11627;51.322;22.816;2023-04-03T07:40:36;3.35;;;1.60;;
22922;SDS011;11627;51.322;22.816;2023-04-03T07:43:03;3.63;;;1.52;;
22922;SDS011;11627;51.322;22.816;2023-04-03T07:45:30;2.67;;;1.40;;
22922;SDS011;11627;51.322;22.816;2023-04-03T07:47:57;2.25;;;1.20;;
22922;SDS011;11627;51.322;22.816;2023-04-03T07:50:22;4.10;;;1.80;;
22922;SDS011;11627;51.322;22.816;2023-04-03T07:52:48;6.18;;;1.20;;
22922;SDS011;11627;51.322;22.816;2023-04-03T07:55:16;1.85;;;1.33;;
22922;SDS011;11627;51.322;22.816;2023-04-03T07:57:41;2.13;;;1.25;;
22922;SDS011;11627;51.322;22.816;2023-04-03T08:00:07;2.20;;;1.10;;
22922;SDS011;11627;51.322;22.816;2023-04-03T08:02:34;2.58;;;1.10;;
22922;SDS011;11627;51.322;22.816;2023-04-03T08:05:00;2.22;;;1.17;;
22922;SDS011;11627;51.322;22.816;2023-04-03T08:07:26;1.92;;;0.95;;
22922;SDS011;11627;51.322;22.816;2023-04-03T08:09:52;2.17;;;1.10;;
22922;SDS011;11627;51.322;22.816;2023-04-03T08:12:17;3.53;;;1.30;;
22922;SDS011;11627;51.322;22.816;2023-04-03T08:14:43;4.35;;;1.40;;
22922;SDS011;11627;51.322;22.816;2023-04-03T08:17:09;2.60;;;1.20;;
22922;SDS011;11627;51.322;22.816;2023-04-03T08:19:39;3.25;;;1.08;;
22922;SDS011;11627;51.322;22.816;2023-04-03T08:22:05;2.47;;;1.00;;
22922;SDS011;11627;51.322;22.816;2023-04-03T08:24:32;3.28;;;1.10;;
22922;SDS011;11627;51.322;22.816;2023-04-03T08:26:58;3.08;;;1.30;;
22922;SDS011;11627;51.322;22.816;2023-04-03T08:29:24;1.88;;;1.15;;
22922;SDS011;11627;51.322;22.816;2023-04-03T08:31:50;1.92;;;1.02;;
22922;SDS011;11627;51.322;22.816;2023-04-03T08:34:16;2.72;;;1.15;;
22922;SDS011;11627;51.322;22.816;2023-04-03T08:36:43;2.72;;;0.98;;
22922;SDS011;11627;51.322;22.816;2023-04-03T08:39:09;1.83;;;1.17;;
22922;SDS011;11627;51.322;22.816;2023-04-03T08:41:36;1.20;;;0.90;;
22922;SDS011;11627;51.322;22.816;2023-04-03T08:50:11;1.50;;;1.00;;
22922;SDS011;11627;51.322;22.816;2023-04-03T08:52:49;3.00;;;1.02;;
22922;SDS011;11627;51.322;22.816;2023-04-03T08:55:24;4.00;;;1.30;;
22922;SDS011;11627;51.322;22.816;2023-04-03T08:58:26;2.42;;;1.30;;
22922;SDS011;11627;51.322;22.816;2023-04-03T09:01:14;3.20;;;1.08;;
22922;SDS011;11627;51.322;22.816;2023-04-03T09:03:48;3.33;;;1.33;;
22922;SDS011;11627;51.322;22.816;2023-04-03T09:06:21;3.58;;;1.33;;
22922;SDS011;11627;51.322;22.816;2023-04-03T09:16:49;1.88;;;0.98;;
22922;SDS011;11627;51.322;22.816;2023-04-03T09:21:57;1.27;;;1.13;;
22922;SDS011;11627;51.322;22.816;2023-04-03T09:24:27;1.77;;;1.27;;
22922;SDS011;11627;51.322;22.816;2023-04-03T09:26:56;2.00;;;1.10;;
22922;SDS011;11627;51.322;22.816;2023-04-03T09:29:27;3.65;;;1.20;;
22922;SDS011;11627;51.322;22.816;2023-04-03T09:32:01;2.65;;;1.30;;
22922;SDS011;11627;51.322;22.816;2023-04-03T09:34:37;5.00;;;1.85;;
22922;SDS011;11627;51.322;22.816;2023-04-03T09:37:06;3.90;;;1.55;;
22922;SDS011;11627;51.322;22.816;2023-04-03T09:39:33;4.28;;;1.80;;
22922;SDS011;11627;51.322;22.816;2023-04-03T09:42:19;3.60;;;1.45;;
22922;SDS011;11627;51.322;22.816;2023-04-03T09:44:54;3.30;;;1.30;;
22922;SDS011;11627;51.322;22.816;2023-04-03T09:47:32;2.20;;;1.20;;
22922;SDS011;11627;51.322;22.816;2023-04-03T09:52:44;12.90;;;4.45;;
22922;SDS011;11627;51.322;22.816;2023-04-03T09:55:19;14.60;;;4.40;;
22922;SDS011;11627;51.322;22.816;2023-04-03T09:58:00;3.70;;;1.40;;
22922;SDS011;11627;51.322;22.816;2023-04-03T10:00:33;2.47;;;1.20;;
22922;SDS011;11627;51.322;22.816;2023-04-03T10:03:02;1.75;;;1.02;;
22922;SDS011;11627;51.322;22.816;2023-04-03T10:05:33;3.33;;;1.17;;
22922;SDS011;11627;51.322;22.816;2023-04-03T10:10:46;3.72;;;1.63;;
22922;SDS011;11627;51.322;22.816;2023-04-03T10:15:53;6.55;;;2.70;;
22922;SDS011;11627;51.322;22.816;2023-04-03T10:21:19;3.53;;;1.83;;
22922;SDS011;11627;51.322;22.816;2023-04-03T10:24:16;2.47;;;1.30;;
22922;SDS011;11627;51.322;22.816;2023-04-03T10:29:36;3.15;;;1.58;;
22922;SDS011;11627;51.322;22.816;2023-04-03T10:35:07;2.67;;;1.08;;
22922;SDS011;11627;51.322;22.816;2023-04-03T10:43:55;2.10;;;1.00;;
22922;SDS011;11627;51.322;22.816;2023-04-03T10:46:52;1.35;;;1.13;;
22922;SDS011;11627;51.322;22.816;2023-04-03T10:49:56;2.28;;;1.30;;
22922;SDS011;11627;51.322;22.816;2023-04-03T10:57:57;1.70;;;1.02;;
22922;SDS011;11627;51.322;22.816;2023-04-03T11:00:33;2.63;;;1.30;;
22922;SDS011;11627;51.322;22.816;2023-04-03T11:03:13;2.58;;;1.23;;
22922;SDS011;11627;51.322;22.816;2023-04-03T11:05:48;2.53;;;1.23;;
22922;SDS011;11627;51.322;22.816;2023-04-03T11:10:48;2.08;;;1.15;;
22922;SDS011;11627;51.322;22.816;2023-04-03T11:15:50;1.60;;;0.98;;
22922;SDS011;11627;51.322;22.816;2023-04-03T11:18:54;3.50;;;1.30;;
22922;SDS011;11627;51.322;22.816;2023-04-03T11:21:19;3.25;;;1.40;;
22922;SDS011;11627;51.322;22.816;2023-04-03T11:23:48;1.35;;;1.10;;
22922;SDS011;11627;51.322;22.816;2023-04-03T11:26:19;1.60;;;1.05;;
22922;SDS011;11627;51.322;22.816;2023-04-03T11:28:53;2.38;;;1.40;;
22922;SDS011;11627;51.322;22.816;2023-04-03T11:36:44;4.90;;;1.45;;
22922;SDS011;11627;51.322;22.816;2023-04-03T11:39:26;3.10;;;1.70;;
22922;SDS011;11627;51.322;22.816;2023-04-03T11:42:12;2.70;;;1.17;;
22922;SDS011;11627;51.322;22.816;2023-04-03T11:44:50;3.10;;;1.38;;
22922;SDS011;11627;51.322;22.816;2023-04-03T12:08:50;2.35;;;1.25;;
22922;SDS011;11627;51.322;22.816;2023-04-03T12:11:26;3.88;;;1.30;;
22922;SDS011;11627;51.322;22.816;2023-04-03T12:16:22;2.75;;;1.10;;
22922;SDS011;11627;51.322;22.816;2023-04-03T12:21:14;1.52;;;0.88;;
22922;SDS011;11627;51.322;22.816;2023-04-03T12:23:57;4.32;;;1.40;;
22922;SDS011;11627;51.322;22.816;2023-04-03T12:29:33;2.25;;;1.30;;
22922;SDS011;11627;51.322;22.816;2023-04-03T12:32:17;1.60;;;1.00;;
22922;SDS011;11627;51.322;22.816;2023-04-03T12:40:50;4.50;;;1.92;;
22922;SDS011;11627;51.322;22.816;2023-04-03T12:48:47;2.72;;;1.50;;
22922;SDS011;11627;51.322;22.816;2023-04-03T12:51:22;2.42;;;1.10;;
22922;SDS011;11627;51.322;22.816;2023-04-03T12:54:13;3.38;;;1.52;;
22922;SDS011;11627;51.322;22.816;2023-04-03T12:56:43;2.08;;;1.40;;
22922;SDS011;11627;51.322;22.816;2023-04-03T12:59:20;2.65;;;1.23;;
22922;SDS011;11627;51.322;22.816;2023-04-03T13:01:58;2.47;;;1.40;;
22922;SDS011;11627;51.322;22.816;2023-04-03T13:04:25;2.72;;;1.35;;
22922;SDS011;11627;51.322;22.816;2023-04-03T13:06:53;3.72;;;1.58;;
22922;SDS011;11627;51.322;22.816;2023-04-03T13:09:22;2.58;;;1.27;;
22922;SDS011;11627;51.322;22.816;2023-04-03T13:12:01;1.60;;;1.42;;
22922;SDS011;11627;51.322;22.816;2023-04-03T13:14:38;2.22;;;1.20;;
22922;SDS011;11627;51.322;22.816;2023-04-03T13:19:37;2.95;;;1.10;;
22922;SDS011;11627;51.322;22.816;2023-04-03T13:22:06;2.22;;;1.30;;
22922;SDS011;11627;51.322;22.816;2023-04-03T13:24:41;2.50;;;1.40;;
22922;SDS011;11627;51.322;22.816;2023-04-03T13:27:09;2.65;;;1.27;;
22922;SDS011;11627;51.322;22.816;2023-04-03T13:29:37;2.45;;;1.55;;
22922;SDS011;11627;51.322;22.816;2023-04-03T13:32:04;3.58;;;1.70;;
22922;SDS011;11627;51.322;22.816;2023-04-03T13:34:38;2.42;;;1.40;;
22922;SDS011;11627;51.322;22.816;2023-04-03T13:37:07;2.83;;;1.20;;
22922;SDS011;11627;51.322;22.816;2023-04-03T13:40:17;2.58;;;1.35;;
22922;SDS011;11627;51.322;22.816;2023-04-03T13:42:42;2.50;;;1.52;;
22922;SDS011;11627;51.322;22.816;2023-04-03T13:47:46;4.57;;;2.00;;
22922;SDS011;11627;51.322;22.816;2023-04-03T13:50:15;2.10;;;1.52;;
22922;SDS011;11627;51.322;22.816;2023-04-03T13:55:17;2.38;;;1.20;;
22922;SDS011;11627;51.322;22.816;2023-04-03T14:00:50;1.38;;;1.10;;
22922;SDS011;11627;51.322;22.816;2023-04-03T14:03:41;2.53;;;1.30;;
22922;SDS011;11627;51.322;22.816;2023-04-03T14:06:14;4.20;;;1.40;;
22922;SDS011;11627;51.322;22.816;2023-04-03T14:08:41;2.33;;;1.30;;
22922;SDS011;11627;51.322;22.816;2023-04-03T14:11:11;3.28;;;1.67;;
22922;SDS011;11627;51.322;22.816;2023-04-03T14:13:40;3.25;;;1.48;;
22922;SDS011;11627;51.322;22.816;2023-04-03T14:16:07;2.75;;;1.45;;
22922;SDS011;11627;51.322;22.816;2023-04-03T14:18:32;2.67;;;1.60;;
22922;SDS011;11627;51.322;22.816;2023-04-03T14:20:58;3.15;;;1.73;;
22922;SDS011;11627;51.322;22.816;2023-04-03T14:23:24;5.78;;;2.22;;
22922;SDS011;11627;51.322;22.816;2023-04-03T14:25:50;5.78;;;2.40;;
22922;SDS011;11627;51.322;22.816;2023-04-03T14:28:17;2.70;;;1.63;;
22922;SDS011;11627;51.322;22.816;2023-04-03T14:30:45;5.10;;;2.03;;
22922;SDS011;11627;51.322;22.816;2023-04-03T14:33:16;2.65;;;1.45;;
22922;SDS011;11627;51.322;22.816;2023-04-03T14:35:44;5.63;;;1.50;;
22922;SDS011;11627;51.322;22.816;2023-04-03T14:38:21;2.90;;;1.80;;
22922;SDS011;11627;51.322;22.816;2023-04-03T14:40:52;2.28;;;1.40;;
22922;SDS011;11627;51.322;22.816;2023-04-03T14:43:21;2.20;;;1.40;;
22922;SDS011;11627;51.322;22.816;2023-04-03T14:45:47;1.95;;;1.27;;
22922;SDS011;11627;51.322;22.816;2023-04-03T14:48:18;2.00;;;1.30;;
22922;SDS011;11627;51.322;22.816;2023-04-03T14:50:49;4.45;;;1.20;;
22922;SDS011;11627;51.322;22.816;2023-04-03T14:53:17;1.73;;;1.40;;
22922;SDS011;11627;51.322;22.816;2023-04-03T14:55:47;2.13;;;1.35;;
22922;SDS011;11627;51.322;22.816;2023-04-03T14:58:15;3.08;;;1.75;;
22922;SDS011;11627;51.322;22.816;2023-04-03T15:00:45;3.47;;;2.22;;
22922;SDS011;11627;51.322;22.816;2023-04-03T15:03:16;9.40;;;3.30;;
22922;SDS011;11627;51.322;22.816;2023-04-03T15:05:44;4.30;;;1.80;;
22922;SDS011;11627;51.322;22.816;2023-04-03T15:08:16;4.10;;;1.85;;
22922;SDS011;11627;51.322;22.816;2023-04-03T15:10:50;3.00;;;1.55;;
22922;SDS011;11627;51.322;22.816;2023-04-03T15:13:18;2.17;;;1.40;;
22922;SDS011;11627;51.322;22.816;2023-04-03T15:15:45;3.83;;;1.60;;
22922;SDS011;11627;51.322;22.816;2023-04-03T15:18:14;4.82;;;1.58;;
22922;SDS011;11627;51.322;22.816;2023-04-03T15:20:42;2.55;;;1.30;;
22922;SDS011;11627;51.322;22.816;2023-04-03T15:23:10;4.85;;;1.98;;
22922;SDS011;11627;51.322;22.816;2023-04-03T15:25:37;6.28;;;2.13;;
22922;SDS011;11627;51.322;22.816;2023-04-03T15:28:04;4.78;;;1.92;;
22922;SDS011;11627;51.322;22.816;2023-04-03T15:30:31;3.75;;;1.83;;
22922;SDS011;11627;51.322;22.816;2023-04-03T15:33:06;3.13;;;1.52;;
22922;SDS011;11627;51.322;22.816;2023-04-03T15:35:32;3.08;;;1.60;;
22922;SDS011;11627;51.322;22.816;2023-04-03T15:37:57;2.90;;;1.63;;
22922;SDS011;11627;51.322;22.816;2023-04-03T15:40:23;2.13;;;1.58;;
22922;SDS011;11627;51.322;22.816;2023-04-03T15:42:49;7.07;;;2.35;;
22922;SDS011;11627;51.322;22.816;2023-04-03T15:45:14;5.00;;;2.22;;
22922;SDS011;11627;51.322;22.816;2023-04-03T15:47:40;4.88;;;2.10;;
22922;SDS011;11627;51.322;22.816;2023-04-03T15:50:07;5.90;;;2.50;;
22922;SDS011;11627;51.322;22.816;2023-04-03T15:52:33;6.25;;;2.20;;
22922;SDS011;11627;51.322;22.816;2023-04-03T15:54:59;5.30;;;1.92;;
22922;SDS011;11627;51.322;22.816;2023-04-03T15:57:25;6.65;;;2.20;;
22922;SDS011;11627;51.322;22.816;2023-04-03T15:59:52;3.38;;;2.15;;
22922;SDS011;11627;51.322;22.816;2023-04-03T16:02:18;5.80;;;2.20;;
22922;SDS011;11627;51.322;22.816;2023-04-03T16:04:44;6.07;;;2.53;;
22922;SDS011;11627;51.322;22.816;2023-04-03T16:07:09;5.90;;;2.33;;
22922;SDS011;11627;51.322;22.816;2023-04-03T16:09:36;4.13;;;1.92;;
22922;SDS011;11627;51.322;22.816;2023-04-03T16:12:02;5.63;;;2.40;;
22922;SDS011;11627;51.322;22.816;2023-04-03T16:14:28;5.45;;;2.22;;
22922;SDS011;11627;51.322;22.816;2023-04-03T16:16:55;10.23;;;3.35;;
22922;SDS011;11627;51.322;22.816;2023-04-03T16:19:22;11.35;;;3.65;;
22922;SDS011;11627;51.322;22.816;2023-04-03T16:21:48;7.50;;;2.90;;
22922;SDS011;11627;51.322;22.816;2023-04-03T16:24:15;5.22;;;2.42;;
22922;SDS011;11627;51.322;22.816;2023-04-03T16:26:41;4.70;;;2.60;;
22922;SDS011;11627;51.322;22.816;2023-04-03T16:29:06;7.95;;;3.45;;
22922;SDS011;11627;51.322;22.816;2023-04-03T16:31:32;7.82;;;3.20;;
22922;SDS011;11627;51.322;22.816;2023-04-03T16:33:58;9.13;;;3.85;;